createdAt,value
2022-11-15T00:01:51.273Z,100982.34
2022-11-15T00:05:12.044Z,100978.88
2022-11-15T00:08:33.645Z,100976.28
2022-11-15T00:11:54.670Z,100972.87
2022-11-15T00:15:15.770Z,100986.56
2022-11-15T00:18:36.751Z,100978.81
2022-11-15T00:21:57.979Z,100977.94
2022-11-15T00:25:18.995Z,100983.19
2022-11-15T00:28:40.698Z,100979.84
2022-11-15T00:32:01.481Z,100972.06
2022-11-15T00:35:23.175Z,100977.19
2022-11-15T00:38:44.545Z,100972.91
2022-11-15T00:42:05.767Z,100967.72
2022-11-15T00:45:27.484Z,100966.13
2022-11-15T00:48:48.339Z,100963.59
2022-11-15T00:52:09.523Z,100961.03
2022-11-15T00:55:30.476Z,100950.81
2022-11-15T00:58:51.367Z,100937.97
2022-11-15T01:02:12.776Z,100943.16
2022-11-15T01:05:34.061Z,100944.06
2022-11-15T01:08:55.175Z,100950.97
2022-11-15T01:12:15.963Z,100946.66
2022-11-15T01:15:40.529Z,100950.06
2022-11-15T01:19:01.653Z,100946.69
2022-11-15T01:22:23.246Z,100937.28
2022-11-15T01:25:43.964Z,100933.84
2022-11-15T01:29:05.156Z,100925.34
2022-11-15T01:32:26.055Z,100924.53
2022-11-15T01:35:46.968Z,100931.44
2022-11-15T01:39:09.073Z,100927.09
2022-11-15T01:42:29.953Z,100922.78
2022-11-15T01:45:57.583Z,100922.78
2022-11-15T01:49:22.158Z,100918.47
2022-11-15T01:52:43.547Z,100924.47
2022-11-15T01:56:09.331Z,100915.91
2022-11-15T01:59:31.348Z,100923.59
2022-11-15T02:02:52.224Z,100913.31
2022-11-15T02:06:13.223Z,100908.16
2022-11-15T02:09:34.239Z,100911.59
2022-11-15T02:12:57.127Z,100901.31
2022-11-15T02:16:45.873Z,100897.00
2022-11-15T02:20:33.186Z,100894.31
2022-11-15T02:24:16.115Z,100893.53
2022-11-15T02:28:14.376Z,100896.06
2022-11-15T02:31:47.161Z,100897.66
2022-11-15T02:35:28.930Z,100891.66
2022-11-15T02:39:00.787Z,100890.87
2022-11-15T02:42:55.850Z,100883.97
2022-11-15T02:46:47.183Z,100878.75
2022-11-15T02:50:18.365Z,100882.16
2022-11-15T02:53:39.501Z,100875.25
2022-11-15T02:57:07.888Z,100877.03
2022-11-15T03:00:39.590Z,100878.75
2022-11-15T03:04:17.499Z,100876.03
2022-11-15T03:08:06.296Z,100871.69
2022-11-15T03:11:30.656Z,100872.53
2022-11-15T03:15:05.491Z,100869.81
2022-11-15T03:18:32.954Z,100866.41
2022-11-15T03:21:56.151Z,100872.41
2022-11-15T03:25:27.228Z,100861.31
2022-11-15T03:29:01.258Z,100857.91
2022-11-15T03:32:27.708Z,100849.25
2022-11-15T03:35:49.637Z,100853.50
2022-11-15T03:39:20.536Z,100850.03
2022-11-15T03:42:56.626Z,100851.75
2022-11-15T03:46:24.558Z,100855.97
2022-11-15T03:49:51.074Z,100845.69
2022-11-15T03:53:13.606Z,100847.41
2022-11-15T03:56:34.591Z,100843.94
2022-11-15T03:59:55.555Z,100836.16
2022-11-15T04:03:16.570Z,100832.56
2022-11-15T04:06:37.654Z,100828.19
2022-11-15T04:10:04.097Z,100818.00
2022-11-15T04:13:24.874Z,100816.31
2022-11-15T04:16:45.493Z,100803.41
2022-11-15T04:20:29.184Z,100803.34
2022-11-15T04:23:52.711Z,100800.84
2022-11-15T04:27:14.424Z,100796.66
2022-11-15T04:30:35.551Z,100807.03
2022-11-15T04:33:57.000Z,100808.66
2022-11-15T04:37:18.051Z,100812.00
2022-11-15T04:40:39.739Z,100803.50
2022-11-15T04:44:01.099Z,100801.00
2022-11-15T04:47:21.975Z,100801.12
2022-11-15T04:50:49.290Z,100804.28
2022-11-15T04:54:10.194Z,100797.59
2022-11-15T04:57:31.314Z,100789.03
2022-11-15T05:00:54.622Z,100784.75
2022-11-15T05:04:21.878Z,100778.66
2022-11-15T05:07:42.846Z,100775.19
2022-11-15T05:11:04.079Z,100778.63
2022-11-15T05:14:24.934Z,100780.44
2022-11-15T05:17:45.687Z,100782.13
2022-11-15T05:21:09.690Z,100793.13
2022-11-15T05:24:30.669Z,100784.47
2022-11-15T05:27:51.497Z,100789.53
2022-11-15T05:31:16.184Z,100788.66
2022-11-15T05:34:37.257Z,100792.78
2022-11-15T05:37:58.242Z,100795.31
2022-11-15T05:41:25.279Z,100791.03
2022-11-15T05:44:49.414Z,100778.06
2022-11-15T05:48:11.375Z,100780.47
2022-11-15T05:51:32.576Z,100786.50
2022-11-15T05:54:54.015Z,100793.25
2022-11-15T05:58:15.360Z,100784.72
2022-11-15T06:01:36.274Z,100781.97
2022-11-15T06:04:57.693Z,100779.47
2022-11-15T06:08:18.879Z,100775.94
2022-11-15T06:11:39.876Z,100772.53
2022-11-15T06:15:00.520Z,100770.81
2022-11-15T06:18:21.196Z,100772.47
2022-11-15T06:21:42.240Z,100775.87
2022-11-15T06:25:05.570Z,100770.72
2022-11-15T06:28:33.616Z,100770.59
2022-11-15T06:31:54.531Z,100778.22
2022-11-15T06:35:15.990Z,100779.19
2022-11-15T06:38:37.479Z,100787.66
2022-11-15T06:41:58.427Z,100787.66
2022-11-15T06:45:19.340Z,100789.31
2022-11-15T06:48:40.218Z,100778.91
2022-11-15T06:52:01.009Z,100780.81
2022-11-15T06:55:21.883Z,100786.00
2022-11-15T06:58:43.065Z,100786.84
2022-11-15T07:02:05.036Z,100785.06
2022-11-15T07:05:26.119Z,100783.38
2022-11-15T07:08:47.035Z,100775.69
2022-11-15T07:12:08.167Z,100773.94
2022-11-15T07:15:29.164Z,100764.41
2022-11-15T07:18:49.989Z,100766.06
2022-11-15T07:22:10.696Z,100776.34
2022-11-15T07:25:32.520Z,100771.97
2022-11-15T07:28:53.715Z,100761.44
2022-11-15T07:32:14.735Z,100767.28
2022-11-15T07:35:35.572Z,100765.31
2022-11-15T07:38:56.459Z,100765.13
2022-11-15T07:42:36.050Z,100766.66
2022-11-15T07:45:59.271Z,100766.78
2022-11-15T07:49:20.701Z,100772.75
2022-11-15T07:52:41.749Z,100770.22
2022-11-15T07:56:02.957Z,100757.75
2022-11-15T07:59:24.560Z,100755.13
2022-11-15T08:02:46.770Z,100762.00
2022-11-15T08:06:08.286Z,100754.19
2022-11-15T08:09:29.319Z,100761.88
2022-11-15T08:13:03.769Z,100753.16
2022-11-15T08:16:24.900Z,100748.34
2022-11-15T08:19:46.175Z,100742.22
2022-11-15T08:23:11.250Z,100734.03
2022-11-15T08:26:32.237Z,100736.09
2022-11-15T08:29:58.271Z,100745.72
2022-11-15T08:33:20.450Z,100729.41
2022-11-15T08:36:45.972Z,100720.12
2022-11-15T08:40:08.140Z,100708.00
2022-11-15T08:43:30.337Z,100711.66
2022-11-15T08:46:51.614Z,100707.50
2022-11-15T08:50:12.596Z,100711.66
2022-11-15T08:53:34.778Z,100714.38
2022-11-15T08:56:55.921Z,100697.00
2022-11-15T09:00:17.406Z,100700.31
2022-11-15T09:03:41.368Z,100701.22
2022-11-15T09:07:02.522Z,100697.84
2022-11-15T09:10:25.235Z,100697.91
2022-11-15T09:13:46.628Z,100696.12
2022-11-15T09:17:10.555Z,100694.66
2022-11-15T09:20:32.446Z,100677.25
2022-11-15T09:23:53.918Z,100680.28
2022-11-15T09:27:14.633Z,100669.81
2022-11-15T09:30:36.585Z,100672.06
2022-11-15T09:33:57.807Z,100670.06
2022-11-15T09:37:18.809Z,100659.03
2022-11-15T09:40:39.639Z,100657.16
2022-11-15T09:44:28.137Z,100657.87
2022-11-15T09:48:08.798Z,100658.03
2022-11-15T09:51:47.431Z,100659.34
2022-11-15T09:54:54.399Z,100661.03
2022-11-15T09:58:21.094Z,100644.06
2022-11-15T10:01:48.474Z,100648.31
2022-11-15T10:04:52.768Z,100654.19
2022-11-15T10:08:20.090Z,100655.81
2022-11-15T10:11:41.987Z,100639.97
2022-11-15T10:14:51.574Z,100643.34
2022-11-15T10:18:29.654Z,100633.28
2022-11-15T10:22:10.143Z,100629.81
2022-11-15T10:25:13.471Z,100614.66
2022-11-15T10:28:29.105Z,100612.00
2022-11-15T10:31:31.842Z,100610.09
2022-11-15T10:34:37.371Z,100610.03
2022-11-15T10:37:40.558Z,100601.34
2022-11-15T10:40:46.145Z,100608.97
2022-11-15T10:44:09.628Z,100600.31
2022-11-15T10:47:41.380Z,100594.97
2022-11-15T10:50:48.622Z,100588.09
2022-11-15T10:53:52.727Z,100579.63
2022-11-15T10:56:59.441Z,100566.59
2022-11-15T11:00:08.189Z,100561.97
2022-11-15T11:03:30.458Z,100572.16
2022-11-15T11:06:54.327Z,100564.66
2022-11-15T11:10:13.282Z,100547.94
2022-11-15T11:13:26.966Z,100552.84
2022-11-15T11:16:42.788Z,100552.53
2022-11-15T11:20:04.608Z,100548.94
2022-11-15T11:23:22.659Z,100539.47
2022-11-15T11:26:31.047Z,100539.28
2022-11-15T11:29:50.236Z,100536.59
2022-11-15T11:33:01.841Z,100538.03
2022-11-15T11:36:19.039Z,100535.87
2022-11-15T11:39:21.578Z,100531.56
2022-11-15T11:42:30.338Z,100531.97
2022-11-15T11:45:35.620Z,100527.12
2022-11-15T11:48:42.763Z,100522.56
2022-11-15T11:51:54.173Z,100516.44
2022-11-15T11:55:06.840Z,100512.59
2022-11-15T11:58:22.115Z,100503.53
2022-11-15T12:01:30.147Z,100499.97
2022-11-15T12:04:41.529Z,100484.63
2022-11-15T12:07:45.869Z,100481.97
2022-11-15T12:10:55.477Z,100482.66
2022-11-15T12:14:02.457Z,100483.63
2022-11-15T12:17:05.780Z,100475.28
2022-11-15T12:20:32.708Z,100468.63
2022-11-15T12:23:45.183Z,100457.25
2022-11-15T12:27:20.651Z,100457.06
2022-11-15T12:30:46.431Z,100455.19
2022-11-15T12:33:50.034Z,100459.12
2022-11-15T12:36:53.187Z,100455.41
2022-11-15T12:40:14.085Z,100446.59
2022-11-15T12:43:17.268Z,100450.41
2022-11-15T12:46:19.682Z,100451.25
2022-11-15T12:49:25.008Z,100446.50
2022-11-15T12:52:27.644Z,100441.44
2022-11-15T12:55:33.339Z,100433.19
2022-11-15T12:58:52.966Z,100432.44
2022-11-15T13:02:00.038Z,100431.69
2022-11-15T13:05:14.672Z,100425.22
2022-11-15T13:08:37.518Z,100417.41
2022-11-15T13:11:45.306Z,100413.25
2022-11-15T13:14:51.080Z,100415.72
2022-11-15T13:17:55.729Z,100414.47
2022-11-15T13:21:02.409Z,100415.75
2022-11-15T13:24:06.159Z,100423.72
2022-11-15T13:27:20.506Z,100417.38
2022-11-15T13:30:25.892Z,100417.94
2022-11-15T13:33:36.339Z,100411.28
2022-11-15T13:36:39.004Z,100411.97
2022-11-15T13:39:41.678Z,100413.94
2022-11-15T13:42:46.008Z,100412.19
2022-11-15T13:46:27.759Z,100407.19
2022-11-15T13:49:32.636Z,100403.97
2022-11-15T13:52:38.248Z,100389.03
2022-11-15T13:55:40.765Z,100395.88
2022-11-15T13:58:43.767Z,100385.97
2022-11-15T14:01:46.381Z,100367.66
2022-11-15T14:04:52.507Z,100363.53
2022-11-15T14:07:57.647Z,100366.28
2022-11-15T14:11:29.901Z,100369.06
2022-11-15T14:14:32.421Z,100367.62
2022-11-15T14:17:37.655Z,100366.22
2022-11-15T14:20:41.797Z,100359.28
2022-11-15T14:23:44.805Z,100360.78
2022-11-15T14:26:48.515Z,100358.41
2022-11-15T14:29:52.158Z,100360.38
2022-11-15T14:32:54.635Z,100354.53
2022-11-15T14:35:59.489Z,100351.59
2022-11-15T14:39:02.695Z,100342.31
2022-11-15T14:42:06.803Z,100339.06
2022-11-15T14:45:21.445Z,100343.06
2022-11-15T14:48:24.333Z,100332.84
2022-11-15T14:51:27.246Z,100333.03
2022-11-15T14:54:30.029Z,100332.06
2022-11-15T14:57:32.523Z,100317.25
2022-11-15T15:00:38.005Z,100306.56
2022-11-15T15:03:40.846Z,100308.59
2022-11-15T15:06:43.574Z,100319.03
2022-11-15T15:09:46.668Z,100319.09
2022-11-15T15:12:49.806Z,100320.19
2022-11-15T15:15:53.006Z,100313.34
2022-11-15T15:18:55.758Z,100311.34
2022-11-15T15:21:58.226Z,100306.19
2022-11-15T15:25:01.073Z,100305.16
2022-11-15T15:28:03.618Z,100309.56
2022-11-15T15:31:06.415Z,100305.37
2022-11-15T15:34:13.661Z,100296.72
2022-11-15T15:37:27.336Z,100295.31
2022-11-15T15:40:32.534Z,100306.00
2022-11-15T15:43:35.393Z,100303.47
2022-11-15T15:46:37.839Z,100306.19
2022-11-15T15:49:40.962Z,100307.22
2022-11-15T15:52:43.409Z,100301.22
2022-11-15T15:55:46.299Z,100301.03
2022-11-15T15:58:48.732Z,100292.59
2022-11-15T16:01:51.486Z,100295.78
2022-11-15T16:04:54.148Z,100297.50
2022-11-15T16:07:56.687Z,100303.84
2022-11-15T16:10:59.940Z,100290.81
2022-11-15T16:14:02.475Z,100288.34
2022-11-15T16:17:05.313Z,100298.66
2022-11-15T16:20:08.280Z,100286.25
2022-11-15T16:23:16.141Z,100286.47
2022-11-15T16:26:25.947Z,100288.13
2022-11-15T16:29:29.288Z,100287.22
2022-11-15T16:32:31.766Z,100287.19
2022-11-15T16:35:34.543Z,100298.50
2022-11-15T16:38:37.145Z,100289.16
2022-11-15T16:41:41.331Z,100287.97
2022-11-15T16:44:44.875Z,100277.75
2022-11-15T16:47:47.691Z,100283.66
2022-11-15T16:50:56.188Z,100272.69
2022-11-15T16:53:59.345Z,100265.03
2022-11-15T16:57:01.798Z,100271.13
2022-11-15T17:00:05.284Z,100262.38
2022-11-15T17:03:08.209Z,100262.44
2022-11-15T17:06:12.715Z,100258.09
2022-11-15T17:09:26.138Z,100259.75
2022-11-15T17:12:30.965Z,100258.53
2022-11-15T17:15:33.508Z,100257.75
2022-11-15T17:18:37.171Z,100258.56
2022-11-15T17:21:40.096Z,100257.72
2022-11-15T17:24:45.034Z,100250.81
2022-11-15T17:27:47.898Z,100244.84
2022-11-15T17:30:54.260Z,100245.84
2022-11-15T17:33:56.837Z,100240.91
2022-11-15T17:36:59.619Z,100244.31
2022-11-15T17:40:02.230Z,100240.03
2022-11-15T17:43:06.896Z,100233.44
2022-11-15T17:46:12.887Z,100236.22
2022-11-15T17:49:15.628Z,100225.22
2022-11-15T17:52:18.276Z,100222.88
2022-11-15T17:55:20.933Z,100213.44
2022-11-15T17:58:24.308Z,100209.31
2022-11-15T18:01:29.985Z,100203.97
2022-11-15T18:04:32.857Z,100200.38
2022-11-15T18:07:35.337Z,100200.38
2022-11-15T18:10:38.488Z,100194.34
2022-11-15T18:13:43.674Z,100188.28
2022-11-15T18:16:46.746Z,100196.06
2022-11-15T18:19:49.524Z,100196.06
2022-11-15T18:22:54.349Z,100193.59
2022-11-15T18:25:56.851Z,100189.31
2022-11-15T18:29:04.444Z,100187.50
2022-11-15T18:32:12.371Z,100184.88
2022-11-15T18:35:15.188Z,100178.03
2022-11-15T18:38:17.656Z,100180.44
2022-11-15T18:41:25.432Z,100177.84
2022-11-15T18:44:31.375Z,100186.63
2022-11-15T18:47:34.033Z,100187.50
2022-11-15T18:50:37.064Z,100168.69
2022-11-15T18:53:41.147Z,100171.25
2022-11-15T18:56:44.618Z,100172.16
2022-11-15T18:59:47.475Z,100171.19
2022-11-15T19:02:53.545Z,100173.06
2022-11-15T19:06:04.879Z,100167.06
2022-11-15T19:09:09.166Z,100163.72
2022-11-15T19:12:11.864Z,100165.34
2022-11-15T19:15:14.426Z,100160.06
2022-11-15T19:18:17.218Z,100153.00
2022-11-15T19:21:20.438Z,100151.31
2022-11-15T19:24:23.290Z,100146.34
2022-11-15T19:27:25.761Z,100149.94
2022-11-15T19:30:30.702Z,100132.50
2022-11-15T19:33:34.831Z,100134.12
2022-11-15T19:36:40.794Z,100128.16
2022-11-15T19:39:43.741Z,100134.16
2022-11-15T19:42:46.619Z,100130.78
2022-11-15T19:45:56.921Z,100126.47
2022-11-15T19:49:04.775Z,100129.84
2022-11-15T19:52:07.321Z,100127.09
2022-11-15T19:55:10.129Z,100122.84
2022-11-15T19:58:12.659Z,100118.53
2022-11-15T20:01:19.727Z,100118.44
2022-11-15T20:04:22.466Z,100116.59
2022-11-15T20:07:24.926Z,100115.59
2022-11-15T20:10:28.391Z,100107.66
2022-11-15T20:13:31.380Z,100100.06
2022-11-15T20:16:34.127Z,100084.50
2022-11-15T20:19:36.500Z,100087.84
2022-11-15T20:22:39.171Z,100084.44
2022-11-15T20:25:46.449Z,100083.69
2022-11-15T20:28:49.547Z,100082.81
2022-11-15T20:31:52.171Z,100078.66
2022-11-15T20:34:54.946Z,100082.56
2022-11-15T20:37:57.417Z,100074.91
2022-11-15T20:41:00.756Z,100080.06
2022-11-15T20:44:03.389Z,100068.19
2022-11-15T20:47:06.817Z,100071.81
2022-11-15T20:50:35.541Z,100062.53
2022-11-15T20:53:32.207Z,100063.06
2022-11-15T20:56:34.713Z,100051.00
2022-11-15T20:59:37.609Z,100049.22
2022-11-15T21:02:40.122Z,100052.75
2022-11-15T21:05:44.407Z,100050.87
2022-11-15T21:09:24.149Z,100047.41
2022-11-15T21:12:26.961Z,100052.09
2022-11-15T21:15:29.408Z,100045.22
2022-11-15T21:18:33.007Z,100046.78
2022-11-15T21:21:36.516Z,100043.47
2022-11-15T21:24:39.195Z,100036.53
2022-11-15T21:27:41.678Z,100027.75
2022-11-15T21:30:55.499Z,100030.97
2022-11-15T21:33:57.997Z,100027.66
2022-11-15T21:37:00.836Z,100024.97
2022-11-15T21:40:04.311Z,100024.13
2022-11-15T21:43:07.294Z,100012.16
2022-11-15T21:46:09.867Z,100017.53
2022-11-15T21:49:12.671Z,100015.62
2022-11-15T21:52:15.222Z,100013.41
2022-11-15T21:55:17.854Z,100012.78
2022-11-15T21:58:21.735Z,100016.25
2022-11-15T22:01:44.597Z,100007.00
2022-11-15T22:04:47.413Z,100021.84
2022-11-15T22:07:49.847Z,100020.16
2022-11-15T22:10:53.143Z,100012.09
2022-11-15T22:13:55.644Z,100009.47
2022-11-15T22:16:58.313Z,100016.41
2022-11-15T22:20:11.505Z,100012.91
2022-11-15T22:23:25.240Z,100004.19
2022-11-15T22:26:27.864Z,99992.78
2022-11-15T22:29:31.145Z,99997.03
2022-11-15T22:32:33.675Z,99990.19
2022-11-15T22:35:36.869Z,99989.19
2022-11-15T22:38:39.835Z,99977.13
2022-11-15T22:41:42.758Z,99975.41
2022-11-15T22:44:45.212Z,99969.41
2022-11-15T22:47:47.920Z,99955.37
2022-11-15T22:50:51.553Z,99951.28
2022-11-15T22:53:54.425Z,99943.69
2022-11-15T22:56:56.999Z,99945.47
2022-11-15T22:59:59.758Z,99948.22
2022-11-15T23:03:02.869Z,99944.75
2022-11-15T23:06:07.078Z,99946.75
2022-11-15T23:09:10.002Z,99939.06
2022-11-15T23:12:31.585Z,99932.56
2022-11-15T23:16:23.707Z,99941.19
2022-11-15T23:19:46.598Z,99935.19
2022-11-15T23:23:09.140Z,99935.16
2022-11-15T23:26:32.051Z,99929.81
2022-11-15T23:29:56.769Z,99928.81
2022-11-15T23:33:17.703Z,99923.97
2022-11-15T23:36:20.172Z,99920.25
2022-11-15T23:39:23.261Z,99906.53
2022-11-15T23:42:25.757Z,99913.56
2022-11-15T23:45:29.461Z,99903.28
2022-11-15T23:48:32.488Z,99900.53
2022-11-15T23:51:35.804Z,99904.88
2022-11-15T23:54:38.252Z,99892.41
2022-11-15T23:57:40.980Z,99886.63
